Time;durP1;ratioP1;P1;durP2;ratioP2;P2;SDS_P1;SDS_P2;PMS_P1;PMS_P2;Temp;Humidity;BMP_temperature;BMP_pressure;BME280_temperature;BME280_humidity;BME280_pressure;Samples;Min_cycle;Max_cycle;Signal;HPM_P1;HPM_P2
2024/01/22 00:00:55;;;;;;;8.45;4.25;;;;;;;;;;4970606;28;20034;-70
2024/01/22 00:03:21;;;;;;;9.50;3.90;;;;;;;;;;4970135;28;20034;-70
2024/01/22 00:05:47;;;;;;;11.50;3.75;;;;;;;;;;4970226;28;20076;-71
2024/01/22 00:08:13;;;;;;;8.38;3.92;;;;;;;;;;4970336;28;20061;-71
2024/01/22 00:10:39;;;;;;;9.57;3.75;;;;;;;;;;4970515;28;20050;-71
2024/01/22 00:13:05;;;;;;;14.13;4.55;;;;;;;;;;4967716;28;20042;-70
2024/01/22 00:15:32;;;;;;;11.77;3.97;;;;;;;;;;4969504;28;20033;-70
2024/01/22 00:17:58;;;;;;;9.40;3.92;;;;;;;;;;4969457;28;20034;-71
2024/01/22 00:20:24;;;;;;;10.60;3.83;;;;;;;;;;4954012;28;20045;-72
2024/01/22 00:22:50;;;;;;;9.82;3.78;;;;;;;;;;4969628;28;20553;-71
2024/01/22 00:25:16;;;;;;;10.75;4.38;;;;;;;;;;4970944;28;20034;-71
2024/01/22 00:27:42;;;;;;;11.32;3.63;;;;;;;;;;4951957;28;20033;-71
2024/01/22 00:30:10;;;;;;;8.18;3.65;;;;;;;;;;4969470;28;20164;-71
2024/01/22 00:32:36;;;;;;;8.15;3.97;;;;;;;;;;4969887;28;20084;-71
2024/01/22 00:35:02;;;;;;;6.75;3.35;;;;;;;;;;4969541;28;20025;-72
2024/01/22 00:37:29;;;;;;;9.48;3.53;;;;;;;;;;4969862;28;20026;-73
2024/01/22 00:39:57;;;;;;;10.27;4.05;;;;;;;;;;4969077;28;20026;-72
2024/01/22 00:42:24;;;;;;;9.82;3.63;;;;;;;;;;4969854;28;20050;-72
2024/01/22 00:44:50;;;;;;;9.60;3.92;;;;;;;;;;4968233;28;20073;-71
2024/01/22 00:47:16;;;;;;;9.75;3.53;;;;;;;;;;4968902;28;21829;-71
2024/01/22 00:49:42;;;;;;;8.77;3.70;;;;;;;;;;4968838;28;20117;-71
2024/01/22 00:52:09;;;;;;;9.35;3.97;;;;;;;;;;4969631;28;20555;-72
2024/01/22 00:54:35;;;;;;;8.45;3.60;;;;;;;;;;4969895;28;20038;-71
2024/01/22 00:57:01;;;;;;;8.32;4.20;;;;;;;;;;4969744;28;20038;-71
2024/01/22 00:59:27;;;;;;;10.98;3.80;;;;;;;;;;4968177;28;20042;-71
2024/01/22 01:01:53;;;;;;;7.88;3.30;;;;;;;;;;4949638;28;20034;-71
2024/01/22 01:04:19;;;;;;;9.65;4.22;;;;;;;;;;4970168;28;20044;-72
2024/01/22 01:06:45;;;;;;;9.27;3.88;;;;;;;;;;4965478;28;20224;-71
2024/01/22 01:09:11;;;;;;;7.50;3.13;;;;;;;;;;4969430;28;20049;-71
2024/01/22 01:11:37;;;;;;;8.20;3.45;;;;;;;;;;4968912;28;20039;-69
2024/01/22 01:14:03;;;;;;;8.93;3.55;;;;;;;;;;4969558;28;20049;-71
2024/01/22 01:16:30;;;;;;;8.63;3.22;;;;;;;;;;4968217;28;20369;-71
2024/01/22 01:18:56;;;;;;;8.70;3.97;;;;;;;;;;4969616;28;20038;-71
2024/01/22 01:21:22;;;;;;;8.85;3.75;;;;;;;;;;4967769;28;20051;-72
2024/01/22 01:23:49;;;;;;;10.05;4.38;;;;;;;;;;4968874;28;20135;-71
2024/01/22 01:26:15;;;;;;;10.10;3.38;;;;;;;;;;4968915;28;20034;-72
2024/01/22 01:28:41;;;;;;;8.45;3.75;;;;;;;;;;4969837;28;20101;-71
2024/01/22 01:31:07;;;;;;;6.55;3.47;;;;;;;;;;4970065;28;20422;-71
2024/01/22 01:33:34;;;;;;;10.68;4.03;;;;;;;;;;4967145;28;20025;-70
2024/01/22 01:36:00;;;;;;;9.93;3.63;;;;;;;;;;4968990;28;20750;-71
2024/01/22 01:38:27;;;;;;;8.80;3.50;;;;;;;;;;4967411;28;20434;-71
2024/01/22 01:40:53;;;;;;;7.35;4.20;;;;;;;;;;4970145;28;20033;-73
2024/01/22 01:43:19;;;;;;;9.32;4.22;;;;;;;;;;4968308;28;20038;-72
2024/01/22 01:45:45;;;;;;;8.65;3.55;;;;;;;;;;4969274;28;21196;-71
2024/01/22 01:48:12;;;;;;;9.73;4.30;;;;;;;;;;4969170;28;20093;-71
2024/01/22 01:50:38;;;;;;;8.35;3.53;;;;;;;;;;4969777;28;20085;-71
2024/01/22 01:53:04;;;;;;;12.18;4.20;;;;;;;;;;4968944;28;21856;-71
2024/01/22 01:55:31;;;;;;;11.93;3.60;;;;;;;;;;4968837;28;20582;-72
2024/01/22 01:57:58;;;;;;;7.72;3.72;;;;;;;;;;4969964;28;20038;-71
2024/01/22 02:00:24;;;;;;;11.30;3.67;;;;;;;;;;4972954;28;20035;-72
2024/01/22 02:02:50;;;;;;;7.60;3.95;;;;;;;;;;4973307;28;20564;-73
2024/01/22 02:05:17;;;;;;;9.52;4.13;;;;;;;;;;4973547;28;20037;-73
2024/01/22 02:07:43;;;;;;;10.77;4.22;;;;;;;;;;4955430;28;20026;-73
2024/01/22 02:10:15;;;;;;;18.15;4.07;;;;;;;;;;4972691;28;20641;-73
2024/01/22 02:12:41;;;;;;;8.60;3.60;;;;;;;;;;4973163;28;20425;-74
2024/01/22 02:15:08;;;;;;;11.32;4.00;;;;;;;;;;4972519;28;20168;-73
2024/01/22 02:17:34;;;;;;;11.38;3.72;;;;;;;;;;4972669;28;20159;-72
2024/01/22 02:20:00;;;;;;;11.52;4.22;;;;;;;;;;4972624;28;20039;-73
2024/01/22 02:22:26;;;;;;;7.82;3.35;;;;;;;;;;4973619;28;20050;-68
2024/01/22 02:24:52;;;;;;;11.60;4.38;;;;;;;;;;4974044;28;20041;-70
2024/01/22 02:27:18;;;;;;;7.70;3.55;;;;;;;;;;4973010;28;20524;-69
2024/01/22 02:29:44;;;;;;;8.95;3.28;;;;;;;;;;4971752;28;20885;-69
2024/01/22 02:32:11;;;;;;;7.47;3.30;;;;;;;;;;4973459;28;20125;-69
2024/01/22 02:34:37;;;;;;;8.25;3.67;;;;;;;;;;4971929;28;20026;-70
2024/01/22 02:37:03;;;;;;;16.05;4.10;;;;;;;;;;4954569;28;20489;-70
2024/01/22 02:39:30;;;;;;;8.13;3.65;;;;;;;;;;4973548;28;20108;-69
2024/01/22 02:41:56;;;;;;;8.32;3.28;;;;;;;;;;4972030;28;20726;-70
2024/01/22 02:44:22;;;;;;;8.30;3.38;;;;;;;;;;4971963;28;20034;-69
2024/01/22 02:46:48;;;;;;;7.47;3.65;;;;;;;;;;4972838;28;20946;-70
2024/01/22 02:49:14;;;;;;;7.43;3.13;;;;;;;;;;4973165;28;20041;-70
2024/01/22 02:51:43;;;;;;;8.48;3.10;;;;;;;;;;4972076;28;20043;-69
2024/01/22 02:54:12;;;;;;;9.60;3.97;;;;;;;;;;4958373;28;20104;-69
2024/01/22 02:56:38;;;;;;;12.27;3.90;;;;;;;;;;4972065;28;20096;-68
2024/01/22 02:59:04;;;;;;;7.57;3.35;;;;;;;;;;4971933;28;20053;-70
2024/01/22 03:01:30;;;;;;;6.68;2.97;;;;;;;;;;4970902;28;20057;-70
2024/01/22 03:03:56;;;;;;;9.43;3.58;;;;;;;;;;4955793;28;20050;-70
2024/01/22 03:06:23;;;;;;;6.90;2.88;;;;;;;;;;4970577;28;20034;-70
2024/01/22 03:08:49;;;;;;;7.80;3.22;;;;;;;;;;4970701;28;20026;-70
2024/01/22 03:11:15;;;;;;;5.85;2.88;;;;;;;;;;4970094;28;20299;-68
2024/01/22 03:13:41;;;;;;;6.20;2.70;;;;;;;;;;4971236;28;20038;-70
2024/01/22 03:16:07;;;;;;;8.63;3.22;;;;;;;;;;4971289;28;20035;-71
2024/01/22 03:18:33;;;;;;;10.52;4.00;;;;;;;;;;4972012;28;20038;-70
2024/01/22 03:21:01;;;;;;;6.47;3.28;;;;;;;;;;4970333;28;20046;-69
2024/01/22 03:23:28;;;;;;;7.47;3.22;;;;;;;;;;4972245;28;20033;-69
2024/01/22 03:25:54;;;;;;;9.57;3.72;;;;;;;;;;4971002;28;20081;-69
2024/01/22 03:28:21;;;;;;;9.30;3.30;;;;;;;;;;4972186;28;20112;-70
2024/01/22 03:30:47;;;;;;;9.10;3.75;;;;;;;;;;4971867;28;20030;-70
2024/01/22 03:33:13;;;;;;;11.52;3.95;;;;;;;;;;4970333;28;20029;-69
2024/01/22 03:35:39;;;;;;;7.10;3.15;;;;;;;;;;4970920;28;20021;-66
2024/01/22 03:38:05;;;;;;;7.57;3.17;;;;;;;;;;4968615;28;20439;-70
2024/01/22 03:40:31;;;;;;;10.13;3.30;;;;;;;;;;4971031;28;20406;-70
2024/01/22 03:42:57;;;;;;;8.75;2.83;;;;;;;;;;4968958;28;20559;-70
2024/01/22 03:45:23;;;;;;;7.75;3.70;;;;;;;;;;4969944;28;21899;-70
2024/01/22 03:47:49;;;;;;;6.03;2.58;;;;;;;;;;4969970;28;21838;-70
2024/01/22 03:50:15;;;;;;;8.15;2.92;;;;;;;;;;4970913;28;20622;-69
2024/01/22 03:52:41;;;;;;;7.15;2.78;;;;;;;;;;4957278;28;20042;-69
2024/01/22 03:55:08;;;;;;;9.68;3.63;;;;;;;;;;4970618;28;20029;-69
2024/01/22 03:57:34;;;;;;;9.93;3.03;;;;;;;;;;4969100;28;20653;-70
2024/01/22 04:00:00;;;;;;;7.80;3.05;;;;;;;;;;4969290;28;20122;-70
2024/01/22 04:02:26;;;;;;;5.80;2.40;;;;;;;;;;4970514;28;20058;-70
2024/01/22 04:04:53;;;;;;;7.63;2.67;;;;;;;;;;4969929;28;20068;-71
2024/01/22 04:07:19;;;;;;;5.95;3.13;;;;;;;;;;4970502;28;20026;-70
2024/01/22 04:09:45;;;;;;;7.95;3.20;;;;;;;;;;4969551;28;20117;-70
2024/01/22 04:12:12;;;;;;;8.05;2.58;;;;;;;;;;4952619;28;20204;-70
2024/01/22 04:14:38;;;;;;;5.78;2.60;;;;;;;;;;4967266;28;20049;-70
2024/01/22 04:17:04;;;;;;;8.27;2.80;;;;;;;;;;4971223;28;20037;-70
2024/01/22 04:19:30;;;;;;;5.35;2.25;;;;;;;;;;4968726;28;20043;-71
2024/01/22 04:21:56;;;;;;;7.90;3.03;;;;;;;;;;4971350;28;20058;-71
2024/01/22 04:24:22;;;;;;;6.35;2.80;;;;;;;;;;4970441;28;20038;-71
2024/01/22 04:26:48;;;;;;;5.95;2.55;;;;;;;;;;4969753;28;20038;-70
2024/01/22 04:29:14;;;;;;;6.70;2.42;;;;;;;;;;4969988;28;20033;-70
2024/01/22 04:31:40;;;;;;;6.32;2.20;;;;;;;;;;4970592;28;20034;-70
2024/01/22 04:34:06;;;;;;;5.28;2.33;;;;;;;;;;4968758;28;20124;-70
2024/01/22 04:36:32;;;;;;;7.28;2.67;;;;;;;;;;4969521;28;20049;-70
2024/01/22 04:38:58;;;;;;;6.18;2.33;;;;;;;;;;4970880;28;20049;-70
2024/01/22 04:41:24;;;;;;;3.85;1.98;;;;;;;;;;4968617;28;20034;-70
2024/01/22 04:43:51;;;;;;;6.97;2.50;;;;;;;;;;4967326;28;20503;-69
2024/01/22 04:46:17;;;;;;;4.47;2.20;;;;;;;;;;4970471;28;20028;-69
2024/01/22 04:48:43;;;;;;;6.93;2.15;;;;;;;;;;4971428;28;20065;-69
2024/01/22 04:51:09;;;;;;;4.97;1.90;;;;;;;;;;4969615;28;20149;-70
2024/01/22 04:53:36;;;;;;;6.45;2.30;;;;;;;;;;4953843;28;20069;-70
2024/01/22 04:56:02;;;;;;;5.80;2.38;;;;;;;;;;4969548;28;20033;-70
2024/01/22 04:58:28;;;;;;;4.97;2.03;;;;;;;;;;4970718;28;20108;-70
2024/01/22 05:00:54;;;;;;;6.93;2.38;;;;;;;;;;4969987;28;20048;-70
2024/01/22 05:03:20;;;;;;;5.65;2.22;;;;;;;;;;4969208;28;20045;-70
2024/01/22 05:05:46;;;;;;;4.68;2.30;;;;;;;;;;4970294;28;20429;-70
2024/01/22 05:08:12;;;;;;;3.80;1.77;;;;;;;;;;4969664;28;20516;-70
2024/01/22 05:10:38;;;;;;;4.05;1.98;;;;;;;;;;4970959;28;20686;-70
2024/01/22 05:13:04;;;;;;;5.13;2.00;;;;;;;;;;4969774;28;21855;-70
2024/01/22 05:15:30;;;;;;;6.43;1.95;;;;;;;;;;4969922;28;20070;-70
2024/01/22 05:17:56;;;;;;;5.43;1.90;;;;;;;;;;4969312;28;20053;-70
2024/01/22 05:20:22;;;;;;;6.03;2.20;;;;;;;;;;4970130;28;20505;-69
2024/01/22 05:22:48;;;;;;;4.72;1.73;;;;;;;;;;4969684;28;20271;-69
2024/01/22 05:25:15;;;;;;;4.35;1.70;;;;;;;;;;4970470;28;20041;-70
2024/01/22 05:27:46;;;;;;;4.88;1.55;;;;;;;;;;4969761;28;20038;-70
2024/01/22 05:30:12;;;;;;;4.88;1.63;;;;;;;;;;4970225;28;20041;-69
2024/01/22 05:32:38;;;;;;;8.07;1.33;;;;;;;;;;4970634;28;20038;-70
2024/01/22 05:35:05;;;;;;;1.73;1.10;;;;;;;;;;4972527;28;20382;-69
2024/01/22 05:37:31;;;;;;;2.88;1.13;;;;;;;;;;4973143;28;21979;-67
2024/01/22 05:39:57;;;;;;;2.40;0.90;;;;;;;;;;4973331;28;20056;-70
2024/01/22 05:42:23;;;;;;;4.88;1.20;;;;;;;;;;4972030;28;20030;-69
2024/01/22 05:44:49;;;;;;;4.50;0.90;;;;;;;;;;4969216;28;20034;-69
2024/01/22 05:47:15;;;;;;;2.33;0.80;;;;;;;;;;4972384;28;20038;-70
2024/01/22 05:49:41;;;;;;;3.95;0.80;;;;;;;;;;4972594;28;20065;-69
2024/01/22 05:52:08;;;;;;;3.15;1.00;;;;;;;;;;4974208;28;20069;-68
2024/01/22 05:54:34;;;;;;;4.63;1.02;;;;;;;;;;4971056;28;20029;-69
2024/01/22 05:57:00;;;;;;;7.82;1.30;;;;;;;;;;4973762;28;20369;-69
2024/01/22 05:59:26;;;;;;;7.72;1.42;;;;;;;;;;4972252;28;21856;-68
2024/01/22 06:01:54;;;;;;;6.13;1.30;;;;;;;;;;4972849;28;21845;-69
2024/01/22 06:04:22;;;;;;;8.25;2.10;;;;;;;;;;4972496;28;20041;-68
2024/01/22 06:06:48;;;;;;;5.13;1.27;;;;;;;;;;4972365;28;20057;-68
2024/01/22 06:09:16;;;;;;;13.93;1.70;;;;;;;;;;4972469;28;20030;-68
2024/01/22 06:11:43;;;;;;;11.38;2.10;;;;;;;;;;4973521;28;20047;-67
2024/01/22 06:14:09;;;;;;;8.63;1.77;;;;;;;;;;4971609;28;20045;-67
2024/01/22 06:16:35;;;;;;;6.57;1.67;;;;;;;;;;4972754;28;20088;-67
2024/01/22 06:19:01;;;;;;;6.88;2.50;;;;;;;;;;4972757;28;20042;-67
2024/01/22 06:21:27;;;;;;;7.95;2.42;;;;;;;;;;4971058;28;20050;-68
2024/01/22 06:23:53;;;;;;;6.07;1.65;;;;;;;;;;4971415;28;20041;-67
2024/01/22 06:26:21;;;;;;;7.55;1.60;;;;;;;;;;4969247;28;20038;-67
2024/01/22 06:28:47;;;;;;;8.20;2.05;;;;;;;;;;4970127;28;20030;-67
2024/01/22 06:31:14;;;;;;;9.43;1.40;;;;;;;;;;4952727;28;20024;-66
2024/01/22 06:33:40;;;;;;;7.65;1.38;;;;;;;;;;4970306;28;20057;-67
2024/01/22 06:36:06;;;;;;;10.50;1.60;;;;;;;;;;4968234;28;20508;-67
2024/01/22 06:38:32;;;;;;;8.48;1.33;;;;;;;;;;4969170;28;20045;-67
2024/01/22 06:40:58;;;;;;;9.00;1.40;;;;;;;;;;4969798;28;20082;-67
2024/01/22 06:43:24;;;;;;;11.88;2.00;;;;;;;;;;4968720;28;20485;-67
2024/01/22 06:45:50;;;;;;;6.38;1.52;;;;;;;;;;4970221;28;20125;-67
2024/01/22 06:48:16;;;;;;;12.23;2.63;;;;;;;;;;4969337;28;20034;-68
2024/01/22 06:50:43;;;;;;;12.57;2.60;;;;;;;;;;4969460;28;20122;-67
2024/01/22 06:53:09;;;;;;;14.88;2.35;;;;;;;;;;4953575;28;20034;-67
2024/01/22 06:55:35;;;;;;;9.07;2.22;;;;;;;;;;4954705;28;20026;-67
2024/01/22 06:58:01;;;;;;;10.50;2.15;;;;;;;;;;4968847;28;20030;-67
2024/01/22 07:00:27;;;;;;;12.80;2.80;;;;;;;;;;4969326;28;20034;-67
2024/01/22 07:02:53;;;;;;;16.35;3.25;;;;;;;;;;4969756;28;20035;-67
2024/01/22 07:05:19;;;;;;;12.23;2.83;;;;;;;;;;4969262;28;20033;-68
2024/01/22 07:07:46;;;;;;;20.35;3.55;;;;;;;;;;4968542;28;20060;-67
2024/01/22 07:10:13;;;;;;;14.15;2.58;;;;;;;;;;4970805;28;20092;-67
2024/01/22 07:12:42;;;;;;;19.08;3.72;;;;;;;;;;4967801;28;20030;-68
2024/01/22 07:15:12;;;;;;;19.45;3.20;;;;;;;;;;4969634;28;20045;-68
2024/01/22 07:17:39;;;;;;;18.33;3.40;;;;;;;;;;4967770;28;20044;-67
2024/01/22 07:20:05;;;;;;;20.52;3.60;;;;;;;;;;4954521;28;20042;-67
2024/01/22 07:22:32;;;;;;;26.73;4.13;;;;;;;;;;4970315;28;20058;-67
2024/01/22 07:24:58;;;;;;;24.17;4.53;;;;;;;;;;4971606;28;20658;-68
2024/01/22 07:27:24;;;;;;;28.48;5.18;;;;;;;;;;4970998;28;20121;-67
2024/01/22 07:29:50;;;;;;;25.88;4.90;;;;;;;;;;4970479;28;20037;-67
2024/01/22 07:32:16;;;;;;;26.45;5.03;;;;;;;;;;4954480;28;20103;-67
2024/01/22 07:34:42;;;;;;;33.15;5.57;;;;;;;;;;4971085;28;20034;-68
2024/01/22 07:37:08;;;;;;;34.97;5.90;;;;;;;;;;4971595;28;20031;-67
2024/01/22 07:39:34;;;;;;;30.48;5.15;;;;;;;;;;4971251;28;20116;-67
2024/01/22 07:42:00;;;;;;;28.55;5.05;;;;;;;;;;4970196;28;20080;-67
2024/01/22 07:44:26;;;;;;;34.47;6.47;;;;;;;;;;4969650;28;20038;-67
2024/01/22 07:46:52;;;;;;;32.35;5.75;;;;;;;;;;4971095;28;20153;-67
2024/01/22 07:49:18;;;;;;;36.45;5.45;;;;;;;;;;4970330;28;20045;-67
2024/01/22 07:51:44;;;;;;;35.10;6.38;;;;;;;;;;4971612;28;20385;-67
2024/01/22 07:54:10;;;;;;;29.23;5.65;;;;;;;;;;4969933;28;21409;-67
2024/01/22 07:56:37;;;;;;;35.22;5.72;;;;;;;;;;4972128;28;21512;-67
2024/01/22 07:59:03;;;;;;;54.40;7.03;;;;;;;;;;4971279;28;20174;-67
2024/01/22 08:01:29;;;;;;;42.75;6.57;;;;;;;;;;4971653;28;20120;-66
2024/01/22 08:03:55;;;;;;;34.92;6.57;;;;;;;;;;4963737;28;20081;-66
2024/01/22 08:06:21;;;;;;;33.80;5.47;;;;;;;;;;4964783;28;20142;-66
2024/01/22 08:08:47;;;;;;;30.52;4.97;;;;;;;;;;4962413;28;20042;-67
2024/01/22 08:11:13;;;;;;;24.60;4.60;;;;;;;;;;4964965;28;20035;-66
2024/01/22 08:13:40;;;;;;;20.88;3.55;;;;;;;;;;4962394;28;20164;-67
2024/01/22 08:16:06;;;;;;;20.33;3.13;;;;;;;;;;4965311;28;20453;-66
2024/01/22 08:18:32;;;;;;;21.10;3.80;;;;;;;;;;4963101;28;20037;-66
2024/01/22 08:20:58;;;;;;;25.90;3.75;;;;;;;;;;4964116;28;20033;-66
2024/01/22 08:23:24;;;;;;;31.60;5.13;;;;;;;;;;4969125;28;20148;-66
2024/01/22 08:25:50;;;;;;;33.92;5.70;;;;;;;;;;4969220;28;20034;-66
2024/01/22 08:28:16;;;;;;;30.75;5.47;;;;;;;;;;4968985;28;21128;-67
2024/01/22 08:30:42;;;;;;;39.53;5.75;;;;;;;;;;4972842;28;20211;-67
2024/01/22 08:33:08;;;;;;;31.60;5.85;;;;;;;;;;4975225;28;20092;-67
2024/01/22 08:35:34;;;;;;;39.83;6.28;;;;;;;;;;4974019;28;20045;-67
2024/01/22 08:38:01;;;;;;;35.80;6.45;;;;;;;;;;4974083;28;20033;-67
2024/01/22 08:40:27;;;;;;;35.65;5.60;;;;;;;;;;4975042;28;20029;-67
2024/01/22 08:42:54;;;;;;;37.92;6.15;;;;;;;;;;4975195;28;20061;-67
2024/01/22 08:45:24;;;;;;;36.20;6.25;;;;;;;;;;4973542;28;20141;-67
2024/01/22 08:47:50;;;;;;;36.85;6.13;;;;;;;;;;4974598;28;21779;-67
2024/01/22 08:50:23;;;;;;;38.70;7.25;;;;;;;;;;4975201;28;20027;-67
2024/01/22 08:52:49;;;;;;;33.45;5.45;;;;;;;;;;4974772;28;20898;-67
2024/01/22 08:55:18;;;;;;;38.97;6.70;;;;;;;;;;4974864;28;22023;-67
2024/01/22 08:57:44;;;;;;;46.90;7.00;;;;;;;;;;4974611;28;20048;-67
2024/01/22 09:00:10;;;;;;;48.33;7.97;;;;;;;;;;4975222;28;20038;-67
2024/01/22 09:02:39;;;;;;;44.53;8.18;;;;;;;;;;4974220;28;20576;-67
2024/01/22 09:05:10;;;;;;;53.42;8.43;;;;;;;;;;4974978;28;20042;-67
2024/01/22 09:07:36;;;;;;;46.67;8.30;;;;;;;;;;4973084;28;20039;-67
2024/01/22 09:10:06;;;;;;;52.30;9.02;;;;;;;;;;4975052;28;20661;-67
2024/01/22 09:12:32;;;;;;;48.55;10.45;;;;;;;;;;4974091;28;20030;-67
2024/01/22 09:14:58;;;;;;;47.25;8.40;;;;;;;;;;4974606;28;20142;-67
2024/01/22 09:17:25;;;;;;;58.25;10.07;;;;;;;;;;4974053;28;20567;-67
2024/01/22 09:19:52;;;;;;;55.63;11.23;;;;;;;;;;4973899;28;20096;-67
2024/01/22 09:22:19;;;;;;;55.22;11.00;;;;;;;;;;4971584;28;20057;-67
2024/01/22 09:24:45;;;;;;;53.35;9.35;;;;;;;;;;4970209;28;20536;-67
2024/01/22 09:27:11;;;;;;;48.42;8.90;;;;;;;;;;4972200;28;20033;-67
2024/01/22 09:29:37;;;;;;;53.33;9.27;;;;;;;;;;4972261;28;20030;-67
2024/01/22 09:32:03;;;;;;;58.58;10.38;;;;;;;;;;4972746;28;20034;-67
2024/01/22 09:34:30;;;;;;;53.65;9.25;;;;;;;;;;4972829;28;20056;-67
2024/01/22 09:36:56;;;;;;;43.80;9.50;;;;;;;;;;4972357;28;20092;-67
2024/01/22 09:39:22;;;;;;;38.08;8.15;;;;;;;;;;4971523;28;20034;-67
2024/01/22 09:41:51;;;;;;;39.63;8.35;;;;;;;;;;4972425;28;20037;-67
2024/01/22 09:44:17;;;;;;;38.20;8.10;;;;;;;;;;4970898;28;20037;-67
2024/01/22 09:46:44;;;;;;;47.50;9.90;;;;;;;;;;4972032;28;20061;-67
2024/01/22 09:49:10;;;;;;;37.08;7.82;;;;;;;;;;4970174;28;20034;-68
2024/01/22 09:51:36;;;;;;;32.92;6.90;;;;;;;;;;4972724;28;20026;-67
2024/01/22 09:54:08;;;;;;;43.03;7.32;;;;;;;;;;4969054;28;20041;-67
2024/01/22 09:56:36;;;;;;;43.85;6.80;;;;;;;;;;4972127;28;20034;-67
2024/01/22 09:59:05;;;;;;;38.65;7.38;;;;;;;;;;4971400;28;20030;-67
2024/01/22 10:01:32;;;;;;;34.03;7.43;;;;;;;;;;4971954;28;20034;-67
2024/01/22 10:03:59;;;;;;;34.42;7.63;;;;;;;;;;4972111;28;20581;-67
2024/01/22 10:06:25;;;;;;;36.22;7.40;;;;;;;;;;4972689;28;20042;-67
2024/01/22 10:08:58;;;;;;;47.20;6.85;;;;;;;;;;4971073;28;20033;-67
2024/01/22 10:11:25;;;;;;;32.90;6.43;;;;;;;;;;4972014;28;20034;-67
2024/01/22 10:13:51;;;;;;;33.00;7.78;;;;;;;;;;4954021;28;20056;-67
2024/01/22 10:16:17;;;;;;;33.53;6.90;;;;;;;;;;4972323;28;20034;-67
2024/01/22 10:19:00;;;;;;;29.65;6.75;;;;;;;;;;4971604;28;20785;-67
2024/01/22 10:21:26;;;;;;;36.92;7.53;;;;;;;;;;4974766;28;20226;-67
2024/01/22 10:24:06;;;;;;;34.47;6.72;;;;;;;;;;4975414;28;20042;-67
2024/01/22 10:26:32;;;;;;;28.20;5.72;;;;;;;;;;4975874;28;21783;-67
2024/01/22 10:29:16;;;;;;;31.02;5.85;;;;;;;;;;4958445;28;20030;-67
2024/01/22 10:31:42;;;;;;;;;;;;;;;;;;4975368;28;20536;-68
2024/01/22 10:34:08;;;;;;;34.83;6.00;;;;;;;;;;4976359;28;20044;-68
2024/01/22 10:36:34;;;;;;;29.95;5.93;;;;;;;;;;4956151;28;20034;-68
2024/01/22 10:39:05;;;;;;;26.65;4.43;;;;;;;;;;4974749;28;20046;-68
2024/01/22 10:41:35;;;;;;;23.48;4.70;;;;;;;;;;4975203;28;20061;-68
2024/01/22 10:44:01;;;;;;;22.92;4.95;;;;;;;;;;4974004;28;20990;-68
2024/01/22 10:46:27;;;;;;;22.05;5.05;;;;;;;;;;4974101;28;20042;-68
2024/01/22 10:48:53;;;;;;;24.48;4.65;;;;;;;;;;4975050;28;20117;-68
2024/01/22 10:51:19;;;;;;;25.42;4.53;;;;;;;;;;4975145;28;21285;-68
2024/01/22 10:53:45;;;;;;;25.17;5.03;;;;;;;;;;4957975;28;20255;-68
2024/01/22 10:56:13;;;;;;;22.23;4.70;;;;;;;;;;4975616;28;20065;-68
2024/01/22 10:58:46;;;;;;;23.88;5.53;;;;;;;;;;4974785;28;20057;-68
2024/01/22 11:01:15;;;;;;;20.55;5.13;;;;;;;;;;4975064;28;20033;-68
2024/01/22 11:03:46;;;;;;;22.25;5.57;;;;;;;;;;4974588;28;20030;-68
2024/01/22 11:06:15;;;;;;;25.90;4.65;;;;;;;;;;4954746;28;20389;-68
2024/01/22 11:08:42;;;;;;;20.42;4.78;;;;;;;;;;4974871;28;20033;-68
2024/01/22 11:11:12;;;;;;;31.15;5.30;;;;;;;;;;4974685;28;20044;-68
2024/01/22 11:13:38;;;;;;;29.98;5.43;;;;;;;;;;4974397;28;20041;-68
2024/01/22 11:16:04;;;;;;;22.70;4.68;;;;;;;;;;4973360;28;20040;-68
2024/01/22 11:18:30;;;;;;;25.13;5.43;;;;;;;;;;4973851;28;20115;-68
2024/01/22 11:21:16;;;;;;;21.50;4.05;;;;;;;;;;4954441;28;20141;-68
2024/01/22 11:23:43;;;;;;;24.13;4.53;;;;;;;;;;4973955;28;20042;-68
2024/01/22 11:26:11;;;;;;;21.70;4.85;;;;;;;;;;4974422;28;20036;-68
2024/01/22 11:28:37;;;;;;;26.77;5.55;;;;;;;;;;4974596;28;20806;-68
2024/01/22 11:31:03;;;;;;;18.63;4.75;;;;;;;;;;4974557;28;20375;-68
2024/01/22 11:33:30;;;;;;;19.65;4.72;;;;;;;;;;4974285;28;20042;-68
2024/01/22 11:35:56;;;;;;;29.13;4.82;;;;;;;;;;4973886;28;20126;-68
2024/01/22 11:38:41;;;;;;;26.77;4.22;;;;;;;;;;4974092;28;20037;-68
2024/01/22 11:41:07;;;;;;;28.92;4.80;;;;;;;;;;4972188;28;20025;-68
2024/01/22 11:43:33;;;;;;;19.77;4.50;;;;;;;;;;4974443;28;20140;-68
2024/01/22 11:46:06;;;;;;;24.73;5.25;;;;;;;;;;4973920;28;20617;-69
2024/01/22 11:48:32;;;;;;;21.10;4.18;;;;;;;;;;4975006;28;20100;-69
2024/01/22 11:50:58;;;;;;;20.27;4.63;;;;;;;;;;4974071;28;20068;-68
2024/01/22 11:53:25;;;;;;;24.48;4.32;;;;;;;;;;4970119;28;20137;-68
2024/01/22 11:55:57;;;;;;;24.58;4.25;;;;;;;;;;4974503;28;20032;-69
2024/01/22 11:58:23;;;;;;;23.08;4.65;;;;;;;;;;4974352;28;20037;-69
2024/01/22 12:00:51;;;;;;;26.40;4.43;;;;;;;;;;4973382;28;20026;-69
2024/01/22 12:03:23;;;;;;;17.42;3.72;;;;;;;;;;4973067;28;20058;-69
2024/01/22 12:05:57;;;;;;;24.50;4.38;;;;;;;;;;4965641;28;20595;-69
2024/01/22 12:08:23;;;;;;;19.98;4.40;;;;;;;;;;4968447;28;20033;-69
2024/01/22 12:10:52;;;;;;;21.77;5.38;;;;;;;;;;4966931;28;20065;-69
2024/01/22 12:13:19;;;;;;;23.55;4.20;;;;;;;;;;4967870;28;20026;-69
2024/01/22 12:15:45;;;;;;;21.40;4.25;;;;;;;;;;4967028;28;20080;-69
2024/01/22 12:18:11;;;;;;;21.05;3.97;;;;;;;;;;4967469;28;21911;-69
2024/01/22 12:20:37;;;;;;;17.73;3.28;;;;;;;;;;4967684;28;21857;-69
2024/01/22 12:23:04;;;;;;;24.65;4.45;;;;;;;;;;4967200;28;20042;-69
2024/01/22 12:25:38;;;;;;;20.35;3.35;;;;;;;;;;4967966;28;20064;-69
2024/01/22 12:28:07;;;;;;;23.55;4.55;;;;;;;;;;4967589;28;20135;-69
2024/01/22 12:30:34;;;;;;;22.15;4.88;;;;;;;;;;4966448;28;20030;-69
2024/01/22 12:33:00;;;;;;;19.48;4.00;;;;;;;;;;4967269;28;20477;-69
2024/01/22 12:35:26;;;;;;;23.08;3.88;;;;;;;;;;4967048;28;20034;-69
2024/01/22 12:37:52;;;;;;;20.88;4.07;;;;;;;;;;4949019;28;20041;-69
2024/01/22 12:40:19;;;;;;;17.10;3.92;;;;;;;;;;4967491;28;20705;-69
2024/01/22 12:42:47;;;;;;;22.08;4.07;;;;;;;;;;4970178;28;20038;-68
2024/01/22 12:45:14;;;;;;;19.83;3.35;;;;;;;;;;4972736;28;21004;-69
2024/01/22 12:47:40;;;;;;;14.77;3.40;;;;;;;;;;4972715;28;20030;-69
2024/01/22 12:50:07;;;;;;;18.65;3.47;;;;;;;;;;4973005;28;20018;-69
2024/01/22 12:52:33;;;;;;;15.13;3.72;;;;;;;;;;4972175;28;20036;-69
2024/01/22 12:55:02;;;;;;;21.40;4.43;;;;;;;;;;4955297;28;20474;-69
2024/01/22 12:57:28;;;;;;;15.25;4.00;;;;;;;;;;4973264;28;20042;-69
2024/01/22 12:59:54;;;;;;;22.40;4.78;;;;;;;;;;4972944;28;20041;-69
2024/01/22 13:02:20;;;;;;;17.10;3.75;;;;;;;;;;4954233;28;20053;-69
2024/01/22 13:04:48;;;;;;;21.10;4.18;;;;;;;;;;4973419;28;20050;-69
2024/01/22 13:07:14;;;;;;;18.40;3.65;;;;;;;;;;4973105;28;20034;-69
2024/01/22 13:09:40;;;;;;;21.58;4.25;;;;;;;;;;4972958;28;20072;-69
2024/01/22 13:12:08;;;;;;;18.90;4.50;;;;;;;;;;4954575;28;20038;-69
2024/01/22 13:14:34;;;;;;;26.35;4.15;;;;;;;;;;4972233;28;20164;-69
2024/01/22 13:17:04;;;;;;;19.80;5.03;;;;;;;;;;4971551;28;20124;-69
2024/01/22 13:19:31;;;;;;;18.83;4.03;;;;;;;;;;4971563;28;20132;-69
2024/01/22 13:21:58;;;;;;;19.20;3.65;;;;;;;;;;4972573;28;20557;-69
2024/01/22 13:24:25;;;;;;;20.45;4.80;;;;;;;;;;4973320;28;20034;-69
2024/01/22 13:26:51;;;;;;;24.90;4.45;;;;;;;;;;4973888;28;21175;-70
2024/01/22 13:29:17;;;;;;;23.90;3.92;;;;;;;;;;4971185;28;20030;-69
2024/01/22 13:31:43;;;;;;;26.20;4.35;;;;;;;;;;4973277;28;20053;-69
2024/01/22 13:34:09;;;;;;;20.33;4.20;;;;;;;;;;4971473;28;20161;-69
2024/01/22 13:36:35;;;;;;;31.83;4.72;;;;;;;;;;4973533;28;20156;-68
2024/01/22 13:39:02;;;;;;;24.90;4.05;;;;;;;;;;4973107;28;20046;-68
2024/01/22 13:41:29;;;;;;;25.70;5.25;;;;;;;;;;4973055;28;20026;-68
2024/01/22 13:43:56;;;;;;;25.77;4.78;;;;;;;;;;4972571;28;20100;-68
2024/01/22 13:46:25;;;;;;;26.77;4.88;;;;;;;;;;4956044;28;20041;-68
2024/01/22 13:48:52;;;;;;;23.08;4.88;;;;;;;;;;4972867;28;20037;-68
2024/01/22 13:51:19;;;;;;;27.58;4.93;;;;;;;;;;4972808;28;20081;-69
2024/01/22 13:53:45;;;;;;;19.85;4.07;;;;;;;;;;4973960;28;20034;-69
2024/01/22 13:56:12;;;;;;;19.63;4.65;;;;;;;;;;4976688;28;20569;-69
2024/01/22 13:58:43;;;;;;;22.85;4.78;;;;;;;;;;4976421;28;20038;-69
2024/01/22 14:01:09;;;;;;;19.67;4.13;;;;;;;;;;4976841;28;20039;-69
2024/01/22 14:03:35;;;;;;;20.70;5.07;;;;;;;;;;4957149;28;20903;-69
2024/01/22 14:06:01;;;;;;;24.65;4.40;;;;;;;;;;4975249;28;20026;-69
2024/01/22 14:08:28;;;;;;;20.15;4.47;;;;;;;;;;4976678;28;20038;-69
2024/01/22 14:10:54;;;;;;;22.90;4.82;;;;;;;;;;4975885;28;20057;-69
2024/01/22 14:13:20;;;;;;;23.02;3.95;;;;;;;;;;4976400;28;20029;-69
2024/01/22 14:15:47;;;;;;;21.25;4.72;;;;;;;;;;4974926;28;20030;-69
2024/01/22 14:18:13;;;;;;;20.05;4.70;;;;;;;;;;4976248;28;20085;-69
2024/01/22 14:20:39;;;;;;;22.20;4.60;;;;;;;;;;4976201;28;20033;-69
2024/01/22 14:23:06;;;;;;;26.77;4.22;;;;;;;;;;4975254;28;20128;-69
2024/01/22 14:25:32;;;;;;;27.33;5.05;;;;;;;;;;4974056;28;20066;-69
2024/01/22 14:27:58;;;;;;;23.33;4.28;;;;;;;;;;4974283;28;20030;-69
2024/01/22 14:30:25;;;;;;;24.50;5.20;;;;;;;;;;4975801;28;21895;-69
2024/01/22 14:32:51;;;;;;;24.55;5.15;;;;;;;;;;4975121;28;20076;-69